createdAt,value
2023-03-02T00:03:33.361Z,0.51
2023-03-02T00:07:33.226Z,0.51
2023-03-02T00:11:33.213Z,0.51
2023-03-02T00:15:33.207Z,0.51
2023-03-02T00:19:33.147Z,0.51
2023-03-02T00:23:33.097Z,0.51
2023-03-02T00:27:33.036Z,0.51
2023-03-02T00:31:33.057Z,0.51
2023-03-02T00:35:33.008Z,0.52
2023-03-02T00:39:32.905Z,0.52
2023-03-02T00:43:32.926Z,0.51
2023-03-02T00:47:32.871Z,0.50
2023-03-02T00:51:33.039Z,0.51
2023-03-02T00:55:33.259Z,0.50
2023-03-02T00:59:33.450Z,0.51
2023-03-02T01:03:33.730Z,0.51
2023-03-02T01:07:33.649Z,0.52
2023-03-02T01:11:33.592Z,0.52
2023-03-02T01:15:33.557Z,0.51
2023-03-02T01:19:33.514Z,0.51
2023-03-02T01:23:33.492Z,0.51
2023-03-02T01:27:33.451Z,0.52
2023-03-02T01:31:33.430Z,0.50
2023-03-02T01:35:33.391Z,0.51
2023-03-02T01:39:33.366Z,0.51
2023-03-02T01:43:33.412Z,0.52
2023-03-02T01:47:33.362Z,0.51
2023-03-02T01:51:33.341Z,0.51
2023-03-02T01:55:33.308Z,0.51
2023-03-02T01:59:33.269Z,0.53
2023-03-02T02:03:33.225Z,0.51
2023-03-02T02:07:33.175Z,0.51
2023-03-02T02:11:33.144Z,0.51
2023-03-02T02:15:33.094Z,0.51
2023-03-02T02:19:33.049Z,0.50
2023-03-02T02:23:33.209Z,0.52
2023-03-02T02:27:33.137Z,0.52
2023-03-02T02:31:33.139Z,0.52
2023-03-02T02:35:33.094Z,0.51
2023-03-02T02:39:33.028Z,0.51
2023-03-02T02:43:32.974Z,0.52
2023-03-02T02:47:32.927Z,0.51
2023-03-02T02:51:32.913Z,0.51
2023-03-02T02:55:32.895Z,0.51
2023-03-02T02:59:32.827Z,0.50
2023-03-02T03:03:32.782Z,0.50
2023-03-02T03:07:32.775Z,0.51
2023-03-02T03:11:32.920Z,0.51
2023-03-02T03:15:33.155Z,0.50
2023-03-02T03:19:33.327Z,0.52
2023-03-02T03:23:33.274Z,0.51
2023-03-02T03:27:33.252Z,0.51
2023-03-02T03:31:33.220Z,0.51
2023-03-02T03:35:33.216Z,0.51
2023-03-02T03:39:33.113Z,0.50
2023-03-02T03:43:33.581Z,0.51
2023-03-02T03:47:33.068Z,0.51
2023-03-02T03:51:33.022Z,0.51
2023-03-02T03:55:32.985Z,0.50
2023-03-02T03:59:32.960Z,0.50
2023-03-02T04:03:32.903Z,0.51
2023-03-02T04:07:32.867Z,0.50
2023-03-02T04:11:33.034Z,0.52
2023-03-02T04:15:33.237Z,0.51
2023-03-02T04:19:33.380Z,0.51
2023-03-02T04:23:33.345Z,0.50
2023-03-02T04:27:33.281Z,0.51
2023-03-02T04:31:33.254Z,0.53
2023-03-02T04:35:33.234Z,0.51
2023-03-02T04:39:33.226Z,0.52
2023-03-02T04:43:33.144Z,0.52
2023-03-02T04:47:33.154Z,0.51
2023-03-02T04:51:33.077Z,0.51
2023-03-02T04:55:33.059Z,0.51
2023-03-02T04:59:33.010Z,0.50
2023-03-02T05:03:32.997Z,0.51
2023-03-02T05:07:32.951Z,0.51
2023-03-02T05:11:32.899Z,0.50
2023-03-02T05:15:33.014Z,0.51
2023-03-02T05:19:33.237Z,0.51
2023-03-02T05:23:33.410Z,0.51
2023-03-02T05:27:33.575Z,0.51
2023-03-02T05:31:33.747Z,0.51
2023-03-02T05:35:33.839Z,0.51
2023-03-02T05:39:34.003Z,0.51
2023-03-02T05:43:34.123Z,0.51
2023-03-02T05:47:34.100Z,0.52
2023-03-02T05:51:34.086Z,0.52
2023-03-02T05:55:34.043Z,0.51
2023-03-02T05:59:34.001Z,0.52
2023-03-02T06:03:33.967Z,0.52
2023-03-02T06:07:33.934Z,0.52
2023-03-02T06:11:33.862Z,0.51
2023-03-02T06:15:33.857Z,0.52
2023-03-02T06:19:33.787Z,0.53
2023-03-02T06:23:33.784Z,0.52
2023-03-02T06:27:33.760Z,0.51
2023-03-02T06:31:33.728Z,0.51
2023-03-02T06:35:33.972Z,0.51
2023-03-02T06:39:34.142Z,0.52
2023-03-02T06:43:34.136Z,0.56
2023-03-02T06:47:34.132Z,0.59
2023-03-02T06:51:33.988Z,0.68
2023-03-02T06:55:34.163Z,0.74
2023-03-02T06:59:34.145Z,0.83
2023-03-02T07:03:34.199Z,1.09
2023-03-02T07:07:33.840Z,1.27
2023-03-02T07:11:34.115Z,1.61
2023-03-02T07:15:33.798Z,1.94
2023-03-02T07:19:33.714Z,2.16
2023-03-02T07:23:34.150Z,2.35
2023-03-02T07:27:33.635Z,2.63
2023-03-02T07:31:33.930Z,3.10
2023-03-02T07:35:33.638Z,3.39
2023-03-02T07:39:33.651Z,3.61
2023-03-02T07:43:33.500Z,3.63
2023-03-02T07:47:33.644Z,3.97
2023-03-02T07:51:33.935Z,4.86
2023-03-02T07:55:33.680Z,4.16
2023-03-02T07:59:33.695Z,3.71
2023-03-02T08:03:34.167Z,3.24
2023-03-02T08:07:33.893Z,3.03
2023-03-02T08:11:34.490Z,2.75
2023-03-02T08:15:34.279Z,2.59
2023-03-02T08:19:34.466Z,2.33
2023-03-02T08:23:34.673Z,2.19
2023-03-02T08:27:34.776Z,2.02
2023-03-02T08:31:35.448Z,1.92
2023-03-02T08:35:35.745Z,1.90
2023-03-02T08:39:35.690Z,1.80
2023-03-02T08:43:35.673Z,1.74
2023-03-02T08:47:35.681Z,1.62
2023-03-02T08:51:36.181Z,1.66
2023-03-02T08:55:35.917Z,1.60
2023-03-02T08:59:36.211Z,1.69
2023-03-02T09:03:35.909Z,1.65
2023-03-02T09:07:36.166Z,1.77
2023-03-02T09:11:36.216Z,1.81
2023-03-02T09:15:36.028Z,1.82
2023-03-02T09:19:35.966Z,1.88
2023-03-02T09:23:35.964Z,1.94
2023-03-02T09:27:36.221Z,2.02
2023-03-02T09:31:36.533Z,2.01
2023-03-02T09:35:36.200Z,1.97
2023-03-02T09:39:35.818Z,2.09
2023-03-02T09:43:36.201Z,2.06
2023-03-02T09:47:36.319Z,2.02
2023-03-02T09:51:35.715Z,1.92
2023-03-02T09:55:35.643Z,1.92
2023-03-02T09:59:35.596Z,1.98
2023-03-02T10:03:35.843Z,2.05
2023-03-02T10:07:35.552Z,2.11
2023-03-02T10:11:35.600Z,2.20
2023-03-02T10:15:35.748Z,2.14
2023-03-02T10:19:35.739Z,1.95
2023-03-02T10:23:35.832Z,1.70
2023-03-02T10:27:36.216Z,1.43
2023-03-02T10:31:36.040Z,1.30
2023-03-02T10:35:36.249Z,1.23
2023-03-02T10:39:36.734Z,1.15
2023-03-02T10:43:36.714Z,1.03
2023-03-02T10:47:36.477Z,1.00
2023-03-02T10:51:36.737Z,1.00
2023-03-02T10:55:36.739Z,0.93
2023-03-02T10:59:36.977Z,0.93
2023-03-02T11:03:37.169Z,0.81
2023-03-02T11:07:37.147Z,0.77
2023-03-02T11:11:37.620Z,0.72
2023-03-02T11:15:37.162Z,0.71
2023-03-02T11:19:37.245Z,0.54
2023-03-02T11:23:36.976Z,0.68
2023-03-02T11:27:36.947Z,0.59
2023-03-02T11:31:37.292Z,0.61
2023-03-02T11:35:37.295Z,0.66
2023-03-02T11:39:41.138Z,0.72
2023-03-02T11:43:38.261Z,0.75
2023-03-02T11:47:36.764Z,0.78
2023-03-02T11:51:37.831Z,0.82
2023-03-02T11:55:36.716Z,0.82
2023-03-02T11:59:36.688Z,0.85
2023-03-02T12:03:36.639Z,0.89
2023-03-02T12:07:36.774Z,0.89
2023-03-02T12:11:36.594Z,0.88
2023-03-02T12:15:36.542Z,0.89
2023-03-02T12:19:36.495Z,0.91
2023-03-02T12:23:36.475Z,0.94
2023-03-02T12:27:36.738Z,0.95
2023-03-02T12:31:36.462Z,0.96
2023-03-02T12:35:36.808Z,0.95
2023-03-02T12:39:36.783Z,0.95
2023-03-02T12:43:36.791Z,0.92
2023-03-02T12:47:36.389Z,0.91
2023-03-02T12:51:36.822Z,0.87
2023-03-02T12:55:36.822Z,0.86
2023-03-02T12:59:37.393Z,0.85
2023-03-02T13:03:36.768Z,0.82
2023-03-02T13:07:36.724Z,0.83
2023-03-02T13:11:36.675Z,0.82
2023-03-02T13:15:36.782Z,0.81
2023-03-02T13:19:36.609Z,0.79
2023-03-02T13:23:36.788Z,0.79
2023-03-02T13:27:36.823Z,0.77
2023-03-02T13:31:37.392Z,0.73
2023-03-02T13:35:37.000Z,0.74
2023-03-02T13:39:36.980Z,0.72
2023-03-02T13:43:36.950Z,0.71
2023-03-02T13:47:37.300Z,0.70
2023-03-02T13:51:36.882Z,0.70
2023-03-02T13:55:36.811Z,0.69
2023-03-02T13:59:36.803Z,0.68
2023-03-02T14:03:36.782Z,0.68
2023-03-02T14:07:36.733Z,0.67
2023-03-02T14:11:36.671Z,0.65
2023-03-02T14:15:36.709Z,0.66
2023-03-02T14:19:36.844Z,0.64
2023-03-02T14:23:36.699Z,0.63
2023-03-02T14:27:36.831Z,0.62
2023-03-02T14:31:37.069Z,0.60
2023-03-02T14:35:37.354Z,0.57
2023-03-02T14:39:36.970Z,0.59
2023-03-02T14:43:36.942Z,0.57
2023-03-02T14:47:36.923Z,0.57
2023-03-02T14:51:36.894Z,0.56
2023-03-02T14:55:36.839Z,0.56
2023-03-02T14:59:36.806Z,0.55
2023-03-02T15:03:36.807Z,0.55
2023-03-02T15:07:36.809Z,0.55
2023-03-02T15:11:36.833Z,0.54
2023-03-02T15:15:36.790Z,0.53
2023-03-02T15:19:36.854Z,0.53
2023-03-02T15:23:36.716Z,0.52
2023-03-02T15:27:36.669Z,0.51
2023-03-02T15:31:36.895Z,0.51
2023-03-02T15:35:36.580Z,0.51
2023-03-02T15:39:36.567Z,0.51
2023-03-02T15:43:36.481Z,0.51
2023-03-02T15:47:36.492Z,0.51
2023-03-02T15:51:36.447Z,0.51
2023-03-02T15:55:36.457Z,0.51
2023-03-02T15:59:36.374Z,0.50
2023-03-02T16:03:36.340Z,0.51
2023-03-02T16:07:36.288Z,0.51
2023-03-02T16:11:36.271Z,0.51
2023-03-02T16:15:36.197Z,0.51
2023-03-02T16:19:36.288Z,0.51
2023-03-02T16:23:36.192Z,0.51
2023-03-02T16:27:36.137Z,0.51
2023-03-02T16:31:36.124Z,0.50
2023-03-02T16:35:36.389Z,0.51
2023-03-02T16:39:36.046Z,0.50
2023-03-02T16:43:35.975Z,0.51
2023-03-02T16:47:35.927Z,0.51
2023-03-02T16:51:35.945Z,0.50
2023-03-02T16:55:36.384Z,0.52
2023-03-02T16:59:35.825Z,0.52
2023-03-02T17:03:35.810Z,0.51
2023-03-02T17:07:35.743Z,0.51
2023-03-02T17:11:35.777Z,0.51
2023-03-02T17:15:35.753Z,0.50
2023-03-02T17:19:35.730Z,0.50
2023-03-02T17:23:35.708Z,0.51
2023-03-02T17:27:35.684Z,0.51
2023-03-02T17:31:35.676Z,0.51
2023-03-02T17:35:35.574Z,0.51
2023-03-02T17:39:35.576Z,0.51
2023-03-02T17:43:35.520Z,0.51
2023-03-02T17:47:35.499Z,0.51
2023-03-02T17:51:35.454Z,0.51
2023-03-02T17:55:35.416Z,0.51
2023-03-02T17:59:35.383Z,0.52
2023-03-02T18:03:35.390Z,0.52
2023-03-02T18:07:35.309Z,0.50
2023-03-02T18:11:35.265Z,0.51
2023-03-02T18:15:35.217Z,0.52
2023-03-02T18:19:35.231Z,0.50
2023-03-02T18:23:35.245Z,0.50
2023-03-02T18:27:35.307Z,0.50
2023-03-02T18:31:35.354Z,0.51
2023-03-02T18:35:35.309Z,0.51
2023-03-02T18:39:35.317Z,0.52
2023-03-02T18:43:35.329Z,0.50
2023-03-02T18:47:35.406Z,0.52
2023-03-02T18:51:35.418Z,0.51
2023-03-02T18:55:35.475Z,0.50
2023-03-02T18:59:35.509Z,0.50
2023-03-02T19:03:35.570Z,0.51
2023-03-02T19:07:35.628Z,0.51
2023-03-02T19:11:35.729Z,0.53
2023-03-02T19:15:35.785Z,0.51
2023-03-02T19:19:35.873Z,0.51
2023-03-02T19:23:35.969Z,0.52
2023-03-02T19:27:36.111Z,0.51
2023-03-02T19:31:36.259Z,0.51
2023-03-02T19:35:36.392Z,0.51
2023-03-02T19:39:36.577Z,0.53
2023-03-02T19:43:36.611Z,0.52
2023-03-02T19:47:36.787Z,0.51
2023-03-02T19:51:36.926Z,0.51
2023-03-02T19:55:37.081Z,0.52
2023-03-02T19:59:37.209Z,0.52
2023-03-02T20:03:37.393Z,0.52
2023-03-02T20:07:39.788Z,0.51
2023-03-02T20:11:37.525Z,0.52
2023-03-02T20:15:37.511Z,0.52
2023-03-02T20:19:37.436Z,0.53
2023-03-02T20:23:37.442Z,0.50
2023-03-02T20:27:37.369Z,0.51
2023-03-02T20:31:37.325Z,0.52
2023-03-02T20:35:37.352Z,0.52
2023-03-02T20:39:37.352Z,0.52
2023-03-02T20:43:37.525Z,0.51
2023-03-02T20:47:37.683Z,0.51
2023-03-02T20:51:37.846Z,0.51
2023-03-02T20:55:38.011Z,0.53
2023-03-02T20:59:38.210Z,0.51
2023-03-02T21:03:38.383Z,0.51
2023-03-02T21:07:38.535Z,0.51
2023-03-02T21:11:38.732Z,0.52
2023-03-02T21:15:38.936Z,0.50
2023-03-02T21:19:39.068Z,0.52
2023-03-02T21:23:39.223Z,0.51
2023-03-02T21:27:39.386Z,0.51
2023-03-02T21:31:39.536Z,0.50
2023-03-02T21:35:39.734Z,0.52
2023-03-02T21:39:39.907Z,0.51
2023-03-02T21:43:40.069Z,0.52
2023-03-02T21:47:40.260Z,0.52
2023-03-02T21:51:40.445Z,0.51
2023-03-02T21:55:40.614Z,0.51
2023-03-02T21:59:40.810Z,0.51
2023-03-02T22:03:41.038Z,0.51
2023-03-02T22:07:41.191Z,0.52
2023-03-02T22:11:41.442Z,0.51
2023-03-02T22:15:41.648Z,0.51
2023-03-02T22:19:41.900Z,0.52
2023-03-02T22:23:42.095Z,0.51
2023-03-02T22:27:42.324Z,0.51
2023-03-02T22:31:42.550Z,0.51
2023-03-02T22:35:42.598Z,0.51
2023-03-02T22:39:42.591Z,0.52
2023-03-02T22:43:42.413Z,0.50
2023-03-02T22:47:42.396Z,0.51
2023-03-02T22:51:42.375Z,0.50
2023-03-02T22:55:42.330Z,0.51
2023-03-02T22:59:42.275Z,0.51
2023-03-02T23:03:42.263Z,0.51
2023-03-02T23:07:42.239Z,0.50
2023-03-02T23:11:42.464Z,0.51
2023-03-02T23:15:42.387Z,0.50
2023-03-02T23:19:42.346Z,0.51
2023-03-02T23:23:42.311Z,0.51
2023-03-02T23:27:42.283Z,0.52
2023-03-02T23:31:42.292Z,0.51
2023-03-02T23:35:42.289Z,0.52
2023-03-02T23:39:44.383Z,0.52
2023-03-02T23:43:42.159Z,0.52
2023-03-02T23:47:42.099Z,0.51
2023-03-02T23:51:42.076Z,0.52
2023-03-02T23:55:42.010Z,0.51
2023-03-02T23:59:42.011Z,0.51
